createdAt,value
2022-08-26T00:01:47.792Z,7.88
2022-08-26T00:06:50.230Z,7.90
2022-08-26T00:11:55.548Z,7.75
2022-08-26T00:17:08.656Z,8.25
2022-08-26T00:22:11.318Z,7.75
2022-08-26T00:27:15.014Z,7.40
2022-08-26T00:32:17.896Z,7.88
2022-08-26T00:37:20.083Z,7.50
2022-08-26T00:42:23.694Z,7.45
2022-08-26T00:47:31.347Z,6.55
2022-08-26T00:52:45.698Z,7.05
2022-08-26T00:57:55.004Z,7.05
2022-08-26T01:02:58.509Z,6.65
2022-08-26T01:08:01.094Z,6.68
2022-08-26T01:13:11.239Z,7.15
2022-08-26T01:18:15.703Z,7.00
2022-08-26T01:23:19.364Z,7.25
2022-08-26T01:28:29.592Z,7.40
2022-08-26T01:33:42.026Z,7.20
2022-08-26T01:38:46.312Z,7.20
2022-08-26T01:43:51.980Z,7.40
2022-08-26T01:49:08.506Z,7.25
2022-08-26T01:54:15.124Z,7.90
2022-08-26T01:59:20.232Z,7.40
2022-08-26T02:04:27.207Z,7.65
2022-08-26T02:09:30.919Z,7.20
2022-08-26T02:14:43.762Z,7.50
2022-08-26T02:19:49.958Z,7.13
2022-08-26T02:24:55.925Z,7.03
2022-08-26T02:30:01.526Z,7.22
2022-08-26T02:35:03.628Z,7.82
2022-08-26T02:40:09.213Z,7.85
2022-08-26T02:45:16.356Z,7.00
2022-08-26T02:50:25.922Z,7.15
2022-08-26T02:55:29.386Z,7.22
2022-08-26T03:00:32.048Z,7.97
2022-08-26T03:05:34.851Z,6.80
2022-08-26T03:10:38.399Z,7.68
2022-08-26T03:15:40.869Z,7.00
2022-08-26T03:20:42.936Z,6.47
2022-08-26T03:25:50.238Z,7.50
2022-08-26T03:30:52.944Z,7.93
2022-08-26T03:35:55.907Z,7.95
2022-08-26T03:41:00.726Z,7.57
2022-08-26T03:46:06.039Z,8.07
2022-08-26T03:51:14.605Z,7.30
2022-08-26T03:56:25.333Z,7.72
2022-08-26T04:01:29.280Z,7.40
2022-08-26T04:06:35.383Z,7.80
2022-08-26T04:11:40.477Z,8.35
2022-08-26T04:16:43.897Z,8.63
2022-08-26T04:21:47.395Z,8.65
2022-08-26T04:26:52.025Z,8.82
2022-08-26T04:31:56.113Z,7.97
2022-08-26T04:36:58.775Z,8.45
2022-08-26T04:42:02.574Z,8.18
2022-08-26T04:47:05.065Z,8.07
2022-08-26T04:52:07.280Z,7.80
2022-08-26T04:57:13.395Z,8.48
2022-08-26T05:02:16.373Z,7.78
2022-08-26T05:07:18.508Z,8.10
2022-08-26T05:12:23.387Z,9.23
2022-08-26T05:17:27.281Z,6.90
2022-08-26T05:22:29.451Z,7.75
2022-08-26T05:27:32.986Z,6.57
2022-08-26T05:32:35.090Z,6.40
2022-08-26T05:37:39.195Z,6.40
2022-08-26T05:42:42.858Z,6.88
2022-08-26T05:47:48.189Z,7.07
2022-08-26T05:52:53.137Z,8.15
2022-08-26T05:57:57.378Z,7.80
2022-08-26T06:03:00.149Z,8.30
2022-08-26T06:08:14.555Z,9.18
2022-08-26T06:13:19.476Z,8.73
2022-08-26T06:18:24.036Z,11.10
2022-08-26T06:23:47.486Z,12.52
2022-08-26T06:28:55.500Z,13.07
2022-08-26T06:33:58.505Z,15.02
2022-08-26T06:39:03.473Z,16.00
2022-08-26T06:44:08.638Z,15.30
2022-08-26T06:49:11.156Z,16.15
2022-08-26T06:54:13.433Z,14.82
2022-08-26T06:59:17.276Z,16.10
2022-08-26T07:04:24.665Z,15.57
2022-08-26T07:09:30.446Z,17.20
2022-08-26T07:14:35.677Z,16.25
2022-08-26T07:19:37.818Z,16.05
2022-08-26T07:24:42.327Z,15.40
2022-08-26T07:29:46.221Z,15.73
2022-08-26T07:34:48.539Z,16.20
2022-08-26T07:39:51.383Z,14.50
2022-08-26T07:44:55.700Z,14.63
2022-08-26T07:49:58.591Z,14.15
2022-08-26T07:55:04.431Z,13.63
2022-08-26T08:00:11.591Z,13.90
2022-08-26T08:05:16.688Z,12.48
2022-08-26T08:10:22.543Z,11.30
2022-08-26T08:15:35.505Z,11.30
2022-08-26T08:20:37.989Z,10.73
2022-08-26T08:25:40.072Z,9.68
2022-08-26T08:30:43.786Z,10.30
2022-08-26T08:35:46.755Z,10.15
2022-08-26T08:40:49.211Z,9.13
2022-08-26T08:45:58.991Z,8.25
2022-08-26T08:51:09.363Z,8.23
2022-08-26T08:56:20.629Z,8.55
2022-08-26T09:01:45.007Z,9.30
2022-08-26T09:06:49.978Z,8.23
2022-08-26T09:11:52.760Z,8.57
2022-08-26T09:17:00.035Z,8.52
2022-08-26T09:22:09.404Z,8.68
2022-08-26T09:27:14.409Z,9.57
2022-08-26T09:32:22.121Z,8.80
2022-08-26T09:37:42.915Z,8.50
2022-08-26T09:42:45.751Z,7.82
2022-08-26T09:47:57.258Z,7.50
2022-08-26T09:53:17.450Z,7.05
2022-08-26T09:58:35.552Z,7.75
2022-08-26T10:03:41.022Z,8.23
2022-08-26T10:08:48.008Z,6.90
2022-08-26T10:13:56.873Z,8.32
2022-08-26T10:19:03.239Z,6.75
2022-08-26T10:24:11.648Z,8.75
2022-08-26T10:29:19.876Z,7.50
2022-08-26T10:34:24.220Z,10.20
2022-08-26T10:39:33.400Z,7.05
2022-08-26T10:44:38.574Z,6.47
2022-08-26T10:49:48.244Z,6.05
2022-08-26T10:55:00.757Z,6.72
2022-08-26T11:00:27.437Z,6.90
2022-08-26T11:05:29.791Z,6.25
2022-08-26T11:11:08.384Z,5.68
2022-08-26T11:16:10.509Z,6.13
2022-08-26T11:21:46.061Z,6.00
2022-08-26T11:26:55.941Z,6.40
2022-08-26T11:31:59.110Z,6.78
2022-08-26T11:37:05.115Z,6.93
2022-08-26T11:42:23.376Z,7.70
2022-08-26T11:47:30.221Z,7.85
2022-08-26T11:52:32.433Z,8.23
2022-08-26T11:57:41.757Z,7.70
2022-08-26T12:02:43.923Z,6.97
2022-08-26T12:07:51.082Z,6.97
2022-08-26T12:12:59.101Z,6.47
2022-08-26T12:18:28.907Z,6.82
2022-08-26T12:23:41.858Z,6.05
2022-08-26T12:28:49.627Z,5.90
2022-08-26T12:33:52.566Z,6.13
2022-08-26T12:38:58.436Z,6.93
2022-08-26T12:44:02.162Z,6.43
2022-08-26T12:49:04.408Z,6.35
2022-08-26T12:54:07.276Z,6.53
2022-08-26T12:59:25.067Z,6.13
2022-08-26T13:04:38.629Z,5.75
2022-08-26T13:09:41.093Z,5.80
2022-08-26T13:14:46.588Z,5.38
2022-08-26T13:19:48.844Z,4.88
2022-08-26T13:24:53.589Z,5.38
2022-08-26T13:29:59.152Z,4.93
2022-08-26T13:35:05.570Z,4.30
2022-08-26T13:40:09.011Z,4.40
2022-08-26T13:45:17.603Z,5.28
2022-08-26T13:50:19.757Z,4.90
2022-08-26T13:55:22.057Z,4.35
2022-08-26T14:00:25.605Z,4.88
2022-08-26T14:05:27.983Z,4.53
2022-08-26T14:10:30.983Z,4.93
2022-08-26T14:15:36.666Z,4.00
2022-08-26T14:20:39.655Z,4.30
2022-08-26T14:25:41.939Z,3.97
2022-08-26T14:30:47.820Z,4.15
2022-08-26T14:35:49.990Z,4.13
2022-08-26T14:40:52.449Z,3.97
2022-08-26T14:45:56.154Z,4.03
2022-08-26T14:50:58.324Z,3.75
2022-08-26T14:56:00.627Z,4.30
2022-08-26T15:01:05.917Z,3.67
2022-08-26T15:06:10.716Z,4.00
2022-08-26T15:11:18.892Z,4.03
2022-08-26T15:16:29.748Z,4.47
2022-08-26T15:21:36.159Z,4.35
2022-08-26T15:26:43.485Z,3.95
2022-08-26T15:31:51.000Z,5.28
2022-08-26T15:36:59.745Z,6.13
2022-08-26T15:42:03.508Z,4.28
2022-08-26T15:47:11.907Z,5.47
2022-08-26T15:52:16.035Z,5.00
2022-08-26T15:57:21.226Z,4.68
2022-08-26T16:02:32.191Z,4.47
2022-08-26T16:07:35.403Z,5.15
2022-08-26T16:12:40.631Z,4.43
2022-08-26T16:17:49.944Z,4.60
2022-08-26T16:22:53.774Z,5.53
2022-08-26T16:27:58.792Z,4.70
2022-08-26T16:33:07.732Z,4.85
2022-08-26T16:38:17.858Z,5.95
2022-08-26T16:43:23.241Z,5.47
2022-08-26T16:48:35.987Z,5.90
2022-08-26T16:53:39.056Z,5.22
2022-08-26T16:58:46.185Z,5.53
2022-08-26T17:03:55.105Z,5.47
2022-08-26T17:09:08.841Z,5.50
2022-08-26T17:14:16.514Z,5.43
2022-08-26T17:19:26.138Z,5.40
2022-08-26T17:24:33.830Z,4.60
2022-08-26T17:29:42.629Z,4.88
2022-08-26T17:34:50.754Z,5.70
2022-08-26T17:39:58.763Z,5.05
2022-08-26T17:45:12.361Z,5.47
2022-08-26T17:50:21.589Z,4.80
2022-08-26T17:55:26.285Z,5.50
2022-08-26T18:00:37.786Z,5.35
2022-08-26T18:05:56.827Z,5.22
2022-08-26T18:11:02.664Z,5.90
2022-08-26T18:16:15.727Z,5.30
2022-08-26T18:21:22.431Z,6.30
2022-08-26T18:26:32.669Z,6.00
2022-08-26T18:31:37.879Z,6.43
2022-08-26T18:37:03.050Z,7.10
2022-08-26T18:42:09.517Z,6.13
2022-08-26T18:47:12.458Z,6.80
2022-08-26T18:52:18.946Z,5.88
2022-08-26T18:57:21.797Z,6.60
2022-08-26T19:02:24.693Z,5.28
2022-08-26T19:07:31.335Z,8.27
2022-08-26T19:12:33.663Z,7.68
2022-08-26T19:17:36.395Z,6.28
2022-08-26T19:22:41.903Z,6.43
2022-08-26T19:27:47.698Z,5.75
2022-08-26T19:32:50.983Z,5.90
2022-08-26T19:37:54.794Z,6.88
2022-08-26T19:43:04.606Z,6.90
2022-08-26T19:48:08.743Z,6.53
2022-08-26T19:53:17.807Z,6.95
2022-08-26T19:58:20.434Z,6.22
2022-08-26T20:03:27.461Z,6.43
2022-08-26T20:08:37.289Z,5.97
2022-08-26T20:13:49.240Z,6.43
2022-08-26T20:19:20.312Z,6.20
2022-08-26T20:24:33.121Z,5.80
2022-08-26T20:29:38.374Z,5.70
2022-08-26T20:34:44.459Z,5.63
2022-08-26T20:39:52.059Z,5.40
2022-08-26T20:45:06.990Z,5.60
2022-08-26T20:50:15.785Z,5.55
2022-08-26T20:55:23.208Z,5.57
2022-08-26T21:00:30.506Z,5.97
2022-08-26T21:05:38.780Z,5.78
2022-08-26T21:10:46.715Z,5.97
2022-08-26T21:15:52.225Z,6.18
2022-08-26T21:21:00.720Z,5.55
2022-08-26T21:26:09.486Z,5.90
2022-08-26T21:31:17.432Z,6.75
2022-08-26T21:36:24.535Z,6.00
2022-08-26T21:41:32.798Z,6.22
2022-08-26T21:46:39.638Z,5.82
2022-08-26T21:51:48.324Z,5.82
2022-08-26T21:56:59.285Z,6.05
2022-08-26T22:02:02.851Z,6.53
2022-08-26T22:07:08.864Z,6.00
2022-08-26T22:12:18.864Z,6.03
2022-08-26T22:17:30.019Z,5.47
2022-08-26T22:22:38.276Z,5.70
2022-08-26T22:27:42.799Z,5.40
2022-08-26T22:32:47.338Z,5.25
2022-08-26T22:37:50.350Z,5.30
2022-08-26T22:43:05.399Z,5.20
2022-08-26T22:48:11.040Z,5.45
2022-08-26T22:53:14.802Z,5.15
2022-08-26T22:58:34.394Z,5.80
2022-08-26T23:03:39.922Z,5.88
2022-08-26T23:08:49.792Z,5.70
2022-08-26T23:13:56.647Z,6.10
2022-08-26T23:19:01.712Z,6.47
2022-08-26T23:24:07.938Z,5.88
2022-08-26T23:29:18.020Z,5.70
2022-08-26T23:34:44.127Z,5.85
2022-08-26T23:39:56.007Z,5.28
2022-08-26T23:45:15.277Z,5.60
2022-08-26T23:50:21.210Z,5.35
2022-08-26T23:55:24.790Z,5.30
